sensor_id;sensor_type;location;lat;lon;timestamp;temperature;humidity
17154;DHT22;8692;52.164;7.558;2023-09-30T00:01:55;13.50;99.90
17154;DHT22;8692;52.164;7.558;2023-09-30T00:04:24;13.50;99.90
17154;DHT22;8692;52.164;7.558;2023-09-30T00:06:54;13.40;99.90
17154;DHT22;8692;52.164;7.558;2023-09-30T00:09:22;13.40;99.90
17154;DHT22;8692;52.164;7.558;2023-09-30T00:11:50;13.40;99.90
17154;DHT22;8692;52.164;7.558;2023-09-30T00:14:18;13.40;99.90
17154;DHT22;8692;52.164;7.558;2023-09-30T00:16:46;13.40;99.90
17154;DHT22;8692;52.164;7.558;2023-09-30T00:19:14;13.40;99.90
17154;DHT22;8692;52.164;7.558;2023-09-30T00:21:43;13.30;99.90
17154;DHT22;8692;52.164;7.558;2023-09-30T00:24:11;13.40;99.90
17154;DHT22;8692;52.164;7.558;2023-09-30T00:26:39;13.30;99.90
17154;DHT22;8692;52.164;7.558;2023-09-30T00:29:08;13.30;99.90
17154;DHT22;8692;52.164;7.558;2023-09-30T00:31:37;13.30;99.90
17154;DHT22;8692;52.164;7.558;2023-09-30T00:34:05;13.30;99.90
17154;DHT22;8692;52.164;7.558;2023-09-30T00:36:33;13.30;99.90
17154;DHT22;8692;52.164;7.558;2023-09-30T00:39:02;13.30;99.90
17154;DHT22;8692;52.164;7.558;2023-09-30T00:41:30;13.30;99.90
17154;DHT22;8692;52.164;7.558;2023-09-30T00:43:58;13.20;99.90
17154;DHT22;8692;52.164;7.558;2023-09-30T00:46:28;13.20;99.90
17154;DHT22;8692;52.164;7.558;2023-09-30T00:48:59;13.20;99.90
17154;DHT22;8692;52.164;7.558;2023-09-30T00:51:28;13.20;99.90
17154;DHT22;8692;52.164;7.558;2023-09-30T00:53:59;13.20;99.90
17154;DHT22;8692;52.164;7.558;2023-09-30T00:56:30;13.10;99.90
17154;DHT22;8692;52.164;7.558;2023-09-30T00:58:59;13.10;99.90
17154;DHT22;8692;52.164;7.558;2023-09-30T01:01:27;13.10;99.90
17154;DHT22;8692;52.164;7.558;2023-09-30T01:03:55;13.10;99.90
17154;DHT22;8692;52.164;7.558;2023-09-30T01:06:26;13.10;99.90
17154;DHT22;8692;52.164;7.558;2023-09-30T01:08:54;13.10;99.90
17154;DHT22;8692;52.164;7.558;2023-09-30T01:11:22;13.10;99.90
17154;DHT22;8692;52.164;7.558;2023-09-30T01:13:52;13.10;99.90
17154;DHT22;8692;52.164;7.558;2023-09-30T01:16:20;13.10;99.90
17154;DHT22;8692;52.164;7.558;2023-09-30T01:18:48;13.10;99.90
17154;DHT22;8692;52.164;7.558;2023-09-30T01:21:18;13.20;99.90
17154;DHT22;8692;52.164;7.558;2023-09-30T01:23:47;13.10;99.90
17154;DHT22;8692;52.164;7.558;2023-09-30T01:26:15;13.10;99.90
17154;DHT22;8692;52.164;7.558;2023-09-30T01:28:43;13.20;99.90
17154;DHT22;8692;52.164;7.558;2023-09-30T01:31:15;13.20;99.90
17154;DHT22;8692;52.164;7.558;2023-09-30T01:33:43;13.20;99.90
17154;DHT22;8692;52.164;7.558;2023-09-30T01:36:11;13.10;99.90
17154;DHT22;8692;52.164;7.558;2023-09-30T01:38:39;13.10;99.90
17154;DHT22;8692;52.164;7.558;2023-09-30T01:41:09;13.10;99.90
17154;DHT22;8692;52.164;7.558;2023-09-30T01:43:37;13.10;99.90
17154;DHT22;8692;52.164;7.558;2023-09-30T01:46:05;13.10;99.90
17154;DHT22;8692;52.164;7.558;2023-09-30T01:48:33;13.10;99.90
17154;DHT22;8692;52.164;7.558;2023-09-30T01:51:01;13.10;99.90
17154;DHT22;8692;52.164;7.558;2023-09-30T01:53:29;13.10;99.90
17154;DHT22;8692;52.164;7.558;2023-09-30T01:55:57;13.10;99.90
17154;DHT22;8692;52.164;7.558;2023-09-30T01:58:27;13.10;99.90
17154;DHT22;8692;52.164;7.558;2023-09-30T02:01:02;13.10;99.90
17154;DHT22;8692;52.164;7.558;2023-09-30T02:03:30;13.10;99.90
17154;DHT22;8692;52.164;7.558;2023-09-30T02:05:58;13.10;99.90
17154;DHT22;8692;52.164;7.558;2023-09-30T02:08:26;13.10;99.90
17154;DHT22;8692;52.164;7.558;2023-09-30T02:10:54;13.10;99.90
17154;DHT22;8692;52.164;7.558;2023-09-30T02:13:22;13.10;99.90
17154;DHT22;8692;52.164;7.558;2023-09-30T02:15:52;13.10;99.90
17154;DHT22;8692;52.164;7.558;2023-09-30T02:18:22;13.10;99.90
17154;DHT22;8692;52.164;7.558;2023-09-30T02:20:50;13.10;99.90
17154;DHT22;8692;52.164;7.558;2023-09-30T02:23:19;13.10;99.90
17154;DHT22;8692;52.164;7.558;2023-09-30T02:25:48;13.10;99.90
17154;DHT22;8692;52.164;7.558;2023-09-30T02:28:16;13.10;99.90
17154;DHT22;8692;52.164;7.558;2023-09-30T02:30:44;13.10;99.90
17154;DHT22;8692;52.164;7.558;2023-09-30T02:33:14;13.10;99.90
17154;DHT22;8692;52.164;7.558;2023-09-30T02:35:44;13.00;99.90
17154;DHT22;8692;52.164;7.558;2023-09-30T02:38:12;13.00;99.90
17154;DHT22;8692;52.164;7.558;2023-09-30T02:40:42;13.00;99.90
17154;DHT22;8692;52.164;7.558;2023-09-30T02:43:13;13.00;99.90
17154;DHT22;8692;52.164;7.558;2023-09-30T02:45:41;13.00;99.90
17154;DHT22;8692;52.164;7.558;2023-09-30T02:48:09;13.00;99.90
17154;DHT22;8692;52.164;7.558;2023-09-30T02:50:41;13.00;99.90
17154;DHT22;8692;52.164;7.558;2023-09-30T02:53:11;13.00;99.90
17154;DHT22;8692;52.164;7.558;2023-09-30T02:55:39;13.00;99.90
17154;DHT22;8692;52.164;7.558;2023-09-30T02:58:10;13.00;99.90
17154;DHT22;8692;52.164;7.558;2023-09-30T03:00:39;13.00;99.90
17154;DHT22;8692;52.164;7.558;2023-09-30T03:03:07;13.00;99.90
17154;DHT22;8692;52.164;7.558;2023-09-30T03:05:35;12.90;99.90
17154;DHT22;8692;52.164;7.558;2023-09-30T03:08:06;12.90;99.90
17154;DHT22;8692;52.164;7.558;2023-09-30T03:10:34;12.90;99.90
17154;DHT22;8692;52.164;7.558;2023-09-30T03:13:06;12.80;99.90
17154;DHT22;8692;52.164;7.558;2023-09-30T03:15:35;12.80;99.90
17154;DHT22;8692;52.164;7.558;2023-09-30T03:18:04;12.80;99.90
17154;DHT22;8692;52.164;7.558;2023-09-30T03:20:32;12.80;99.90
17154;DHT22;8692;52.164;7.558;2023-09-30T03:23:00;12.80;99.90
17154;DHT22;8692;52.164;7.558;2023-09-30T03:25:32;12.80;99.90
17154;DHT22;8692;52.164;7.558;2023-09-30T03:28:00;12.80;99.90
17154;DHT22;8692;52.164;7.558;2023-09-30T03:30:28;12.80;99.90
17154;DHT22;8692;52.164;7.558;2023-09-30T03:32:56;12.70;99.90
17154;DHT22;8692;52.164;7.558;2023-09-30T03:35:24;12.70;99.90
17154;DHT22;8692;52.164;7.558;2023-09-30T03:37:53;12.70;99.90
17154;DHT22;8692;52.164;7.558;2023-09-30T03:40:21;12.70;99.90
17154;DHT22;8692;52.164;7.558;2023-09-30T03:43:01;12.70;99.90
17154;DHT22;8692;52.164;7.558;2023-09-30T03:45:30;12.60;99.90
17154;DHT22;8692;52.164;7.558;2023-09-30T03:48:01;12.60;99.90
17154;DHT22;8692;52.164;7.558;2023-09-30T03:50:29;12.60;99.90
17154;DHT22;8692;52.164;7.558;2023-09-30T03:53:01;12.60;99.90
17154;DHT22;8692;52.164;7.558;2023-09-30T03:55:29;12.50;99.90
17154;DHT22;8692;52.164;7.558;2023-09-30T03:57:58;12.50;99.90
17154;DHT22;8692;52.164;7.558;2023-09-30T04:00:28;12.50;99.90
17154;DHT22;8692;52.164;7.558;2023-09-30T04:02:56;12.50;99.90
17154;DHT22;8692;52.164;7.558;2023-09-30T04:05:26;12.40;99.90
17154;DHT22;8692;52.164;7.558;2023-09-30T04:07:56;12.40;99.90
17154;DHT22;8692;52.164;7.558;2023-09-30T04:10:25;12.40;99.90
17154;DHT22;8692;52.164;7.558;2023-09-30T04:12:54;12.40;99.90
17154;DHT22;8692;52.164;7.558;2023-09-30T04:15:22;12.40;99.90
17154;DHT22;8692;52.164;7.558;2023-09-30T04:17:52;12.30;99.90
17154;DHT22;8692;52.164;7.558;2023-09-30T04:20:21;12.30;99.90
17154;DHT22;8692;52.164;7.558;2023-09-30T04:22:50;12.30;99.90
17154;DHT22;8692;52.164;7.558;2023-09-30T04:25:24;12.30;99.90
17154;DHT22;8692;52.164;7.558;2023-09-30T04:27:53;12.30;99.90
17154;DHT22;8692;52.164;7.558;2023-09-30T04:30:21;12.20;99.90
17154;DHT22;8692;52.164;7.558;2023-09-30T04:32:51;12.20;99.90
17154;DHT22;8692;52.164;7.558;2023-09-30T04:35:20;12.10;99.90
17154;DHT22;8692;52.164;7.558;2023-09-30T04:37:48;12.10;99.90
17154;DHT22;8692;52.164;7.558;2023-09-30T04:40:16;12.10;99.90
17154;DHT22;8692;52.164;7.558;2023-09-30T04:42:48;12.10;99.90
17154;DHT22;8692;52.164;7.558;2023-09-30T04:45:16;12.00;99.90
17154;DHT22;8692;52.164;7.558;2023-09-30T04:47:47;12.00;99.90
17154;DHT22;8692;52.164;7.558;2023-09-30T04:50:19;12.00;99.90
17154;DHT22;8692;52.164;7.558;2023-09-30T04:52:50;12.00;99.90
17154;DHT22;8692;52.164;7.558;2023-09-30T04:55:18;11.90;99.90
17154;DHT22;8692;52.164;7.558;2023-09-30T04:57:48;11.90;99.90
17154;DHT22;8692;52.164;7.558;2023-09-30T05:00:19;11.90;99.90
17154;DHT22;8692;52.164;7.558;2023-09-30T05:02:54;11.90;99.90
17154;DHT22;8692;52.164;7.558;2023-09-30T05:05:30;11.90;99.90
17154;DHT22;8692;52.164;7.558;2023-09-30T05:07:58;11.90;99.90
17154;DHT22;8692;52.164;7.558;2023-09-30T05:10:28;11.80;99.90
17154;DHT22;8692;52.164;7.558;2023-09-30T05:12:56;11.90;99.90
17154;DHT22;8692;52.164;7.558;2023-09-30T05:15:24;11.90;99.90
17154;DHT22;8692;52.164;7.558;2023-09-30T05:17:53;11.80;99.90
17154;DHT22;8692;52.164;7.558;2023-09-30T05:20:21;11.90;99.90
17154;DHT22;8692;52.164;7.558;2023-09-30T05:22:51;11.80;99.90
17154;DHT22;8692;52.164;7.558;2023-09-30T05:25:19;11.80;99.90
17154;DHT22;8692;52.164;7.558;2023-09-30T05:27:52;11.80;99.90
17154;DHT22;8692;52.164;7.558;2023-09-30T05:30:21;11.80;99.90
17154;DHT22;8692;52.164;7.558;2023-09-30T05:32:49;11.80;99.90
17154;DHT22;8692;52.164;7.558;2023-09-30T05:35:19;11.70;99.90
17154;DHT22;8692;52.164;7.558;2023-09-30T05:37:51;11.70;99.90
17154;DHT22;8692;52.164;7.558;2023-09-30T05:40:20;11.70;99.90
17154;DHT22;8692;52.164;7.558;2023-09-30T05:42:53;11.70;99.90
17154;DHT22;8692;52.164;7.558;2023-09-30T05:45:23;11.70;99.90
17154;DHT22;8692;52.164;7.558;2023-09-30T05:47:53;11.70;99.90
17154;DHT22;8692;52.164;7.558;2023-09-30T05:50:23;11.70;99.90
17154;DHT22;8692;52.164;7.558;2023-09-30T05:52:56;11.70;99.90
17154;DHT22;8692;52.164;7.558;2023-09-30T05:55:24;11.70;99.90
17154;DHT22;8692;52.164;7.558;2023-09-30T05:57:54;11.60;99.90
17154;DHT22;8692;52.164;7.558;2023-09-30T06:00:22;11.60;99.90
17154;DHT22;8692;52.164;7.558;2023-09-30T06:02:55;11.60;99.90
17154;DHT22;8692;52.164;7.558;2023-09-30T06:05:23;11.60;99.90
17154;DHT22;8692;52.164;7.558;2023-09-30T06:07:52;11.60;99.90
17154;DHT22;8692;52.164;7.558;2023-09-30T06:10:23;11.50;99.90
17154;DHT22;8692;52.164;7.558;2023-09-30T06:12:53;11.50;99.90
17154;DHT22;8692;52.164;7.558;2023-09-30T06:15:23;11.50;99.90
17154;DHT22;8692;52.164;7.558;2023-09-30T06:17:53;11.50;99.90
17154;DHT22;8692;52.164;7.558;2023-09-30T06:20:22;11.50;99.90
17154;DHT22;8692;52.164;7.558;2023-09-30T06:22:53;11.50;99.90
17154;DHT22;8692;52.164;7.558;2023-09-30T06:25:23;11.60;99.90
17154;DHT22;8692;52.164;7.558;2023-09-30T06:27:52;11.60;99.90
17154;DHT22;8692;52.164;7.558;2023-09-30T06:30:21;11.60;99.90
17154;DHT22;8692;52.164;7.558;2023-09-30T06:32:56;11.60;99.90
17154;DHT22;8692;52.164;7.558;2023-09-30T06:35:27;11.60;99.90
17154;DHT22;8692;52.164;7.558;2023-09-30T06:37:56;11.60;99.90
17154;DHT22;8692;52.164;7.558;2023-09-30T06:40:26;11.60;99.90
17154;DHT22;8692;52.164;7.558;2023-09-30T06:42:54;11.60;99.90
17154;DHT22;8692;52.164;7.558;2023-09-30T06:45:22;11.70;99.90
17154;DHT22;8692;52.164;7.558;2023-09-30T06:47:50;11.70;99.90
17154;DHT22;8692;52.164;7.558;2023-09-30T06:50:19;11.80;99.90
17154;DHT22;8692;52.164;7.558;2023-09-30T06:52:48;11.80;99.90
17154;DHT22;8692;52.164;7.558;2023-09-30T06:55:17;11.80;99.90
17154;DHT22;8692;52.164;7.558;2023-09-30T06:57:47;11.90;99.90
17154;DHT22;8692;52.164;7.558;2023-09-30T07:00:15;12.00;99.90
17154;DHT22;8692;52.164;7.558;2023-09-30T07:02:43;12.00;99.90
17154;DHT22;8692;52.164;7.558;2023-09-30T07:05:12;12.10;99.90
17154;DHT22;8692;52.164;7.558;2023-09-30T07:07:41;12.10;99.90
17154;DHT22;8692;52.164;7.558;2023-09-30T07:10:11;12.20;99.90
17154;DHT22;8692;52.164;7.558;2023-09-30T07:12:39;12.30;99.90
17154;DHT22;8692;52.164;7.558;2023-09-30T07:15:10;12.30;99.90
17154;DHT22;8692;52.164;7.558;2023-09-30T07:17:38;12.40;99.90
17154;DHT22;8692;52.164;7.558;2023-09-30T07:20:11;12.50;99.90
17154;DHT22;8692;52.164;7.558;2023-09-30T07:22:39;12.50;99.90
17154;DHT22;8692;52.164;7.558;2023-09-30T07:25:21;12.70;99.90
17154;DHT22;8692;52.164;7.558;2023-09-30T07:27:49;12.70;99.90
17154;DHT22;8692;52.164;7.558;2023-09-30T07:30:20;12.80;99.90
17154;DHT22;8692;52.164;7.558;2023-09-30T07:32:48;12.90;99.90
17154;DHT22;8692;52.164;7.558;2023-09-30T07:35:17;12.90;99.90
17154;DHT22;8692;52.164;7.558;2023-09-30T07:37:45;13.00;99.90
17154;DHT22;8692;52.164;7.558;2023-09-30T07:40:13;13.10;99.90
17154;DHT22;8692;52.164;7.558;2023-09-30T07:42:41;13.20;99.90
17154;DHT22;8692;52.164;7.558;2023-09-30T07:45:10;13.30;99.90
17154;DHT22;8692;52.164;7.558;2023-09-30T07:47:45;13.40;99.90
17154;DHT22;8692;52.164;7.558;2023-09-30T07:50:14;13.50;99.90
17154;DHT22;8692;52.164;7.558;2023-09-30T07:52:42;13.50;99.90
17154;DHT22;8692;52.164;7.558;2023-09-30T07:55:10;13.70;99.90
17154;DHT22;8692;52.164;7.558;2023-09-30T07:57:40;13.80;99.90
17154;DHT22;8692;52.164;7.558;2023-09-30T08:00:10;13.90;99.90
17154;DHT22;8692;52.164;7.558;2023-09-30T08:02:43;14.00;99.90
17154;DHT22;8692;52.164;7.558;2023-09-30T08:05:13;14.10;99.90
17154;DHT22;8692;52.164;7.558;2023-09-30T08:07:41;14.20;99.90
17154;DHT22;8692;52.164;7.558;2023-09-30T08:10:09;14.40;99.90
17154;DHT22;8692;52.164;7.558;2023-09-30T08:12:40;14.40;99.90
17154;DHT22;8692;52.164;7.558;2023-09-30T08:15:10;14.50;99.90
17154;DHT22;8692;52.164;7.558;2023-09-30T08:17:39;14.60;99.90
17154;DHT22;8692;52.164;7.558;2023-09-30T08:20:08;14.70;99.90
17154;DHT22;8692;52.164;7.558;2023-09-30T08:22:38;14.80;99.90
17154;DHT22;8692;52.164;7.558;2023-09-30T08:25:07;14.90;99.90
17154;DHT22;8692;52.164;7.558;2023-09-30T08:27:36;14.90;99.90
17154;DHT22;8692;52.164;7.558;2023-09-30T08:30:06;15.00;99.90
17154;DHT22;8692;52.164;7.558;2023-09-30T08:32:35;15.00;99.90
17154;DHT22;8692;52.164;7.558;2023-09-30T08:35:04;15.10;99.90
17154;DHT22;8692;52.164;7.558;2023-09-30T08:37:32;15.20;99.90
17154;DHT22;8692;52.164;7.558;2023-09-30T08:40:02;15.30;99.90
17154;DHT22;8692;52.164;7.558;2023-09-30T08:42:32;15.40;99.90
17154;DHT22;8692;52.164;7.558;2023-09-30T08:45:02;15.50;99.90
17154;DHT22;8692;52.164;7.558;2023-09-30T08:47:33;15.50;99.90
17154;DHT22;8692;52.164;7.558;2023-09-30T08:50:03;15.60;99.90
17154;DHT22;8692;52.164;7.558;2023-09-30T08:52:34;15.70;99.90
17154;DHT22;8692;52.164;7.558;2023-09-30T08:55:08;15.80;99.90
17154;DHT22;8692;52.164;7.558;2023-09-30T08:57:38;15.90;99.90
17154;DHT22;8692;52.164;7.558;2023-09-30T09:00:09;15.90;99.90
17154;DHT22;8692;52.164;7.558;2023-09-30T09:02:41;16.00;99.90
17154;DHT22;8692;52.164;7.558;2023-09-30T09:05:09;16.10;99.90
17154;DHT22;8692;52.164;7.558;2023-09-30T09:07:39;16.20;99.90
17154;DHT22;8692;52.164;7.558;2023-09-30T09:10:10;16.30;99.90
17154;DHT22;8692;52.164;7.558;2023-09-30T09:12:41;16.40;99.90
17154;DHT22;8692;52.164;7.558;2023-09-30T09:15:20;16.40;99.90
17154;DHT22;8692;52.164;7.558;2023-09-30T09:17:49;16.50;99.90
17154;DHT22;8692;52.164;7.558;2023-09-30T09:20:20;16.50;99.90
17154;DHT22;8692;52.164;7.558;2023-09-30T09:22:49;16.60;99.90
17154;DHT22;8692;52.164;7.558;2023-09-30T09:25:22;16.60;99.90
17154;DHT22;8692;52.164;7.558;2023-09-30T09:27:51;16.60;99.90
17154;DHT22;8692;52.164;7.558;2023-09-30T09:30:22;16.70;99.90
17154;DHT22;8692;52.164;7.558;2023-09-30T09:32:59;16.80;99.90
17154;DHT22;8692;52.164;7.558;2023-09-30T09:35:28;16.90;99.90
17154;DHT22;8692;52.164;7.558;2023-09-30T09:37:58;17.00;99.90
17154;DHT22;8692;52.164;7.558;2023-09-30T09:40:29;17.10;99.90
17154;DHT22;8692;52.164;7.558;2023-09-30T09:42:58;17.20;99.90
17154;DHT22;8692;52.164;7.558;2023-09-30T09:45:29;17.20;99.90
17154;DHT22;8692;52.164;7.558;2023-09-30T09:48:00;17.30;99.90
17154;DHT22;8692;52.164;7.558;2023-09-30T09:50:28;17.40;99.90
17154;DHT22;8692;52.164;7.558;2023-09-30T09:52:59;17.40;99.90
17154;DHT22;8692;52.164;7.558;2023-09-30T09:55:28;17.50;99.90
17154;DHT22;8692;52.164;7.558;2023-09-30T09:57:58;17.50;99.90
17154;DHT22;8692;52.164;7.558;2023-09-30T10:00:26;17.60;99.90
17154;DHT22;8692;52.164;7.558;2023-09-30T10:02:57;17.50;99.90
17154;DHT22;8692;52.164;7.558;2023-09-30T10:05:25;17.50;99.90
17154;DHT22;8692;52.164;7.558;2023-09-30T10:07:57;17.50;99.90
17154;DHT22;8692;52.164;7.558;2023-09-30T10:10:30;17.60;99.90
17154;DHT22;8692;52.164;7.558;2023-09-30T10:13:03;17.60;99.90
17154;DHT22;8692;52.164;7.558;2023-09-30T10:15:38;17.60;99.90
17154;DHT22;8692;52.164;7.558;2023-09-30T10:18:09;17.60;99.90
17154;DHT22;8692;52.164;7.558;2023-09-30T10:20:42;17.60;99.90
17154;DHT22;8692;52.164;7.558;2023-09-30T10:23:22;17.70;99.90
17154;DHT22;8692;52.164;7.558;2023-09-30T10:25:54;17.70;99.90
17154;DHT22;8692;52.164;7.558;2023-09-30T10:28:35;17.80;99.90
17154;DHT22;8692;52.164;7.558;2023-09-30T10:31:11;17.90;99.90
17154;DHT22;8692;52.164;7.558;2023-09-30T10:36:45;18.10;99.90
17154;DHT22;8692;52.164;7.558;2023-09-30T10:39:14;18.20;99.90
17154;DHT22;8692;52.164;7.558;2023-09-30T10:41:52;18.30;99.90
17154;DHT22;8692;52.164;7.558;2023-09-30T10:44:32;18.30;99.90
17154;DHT22;8692;52.164;7.558;2023-09-30T10:47:35;18.30;99.90
17154;DHT22;8692;52.164;7.558;2023-09-30T10:53:08;18.50;99.90
17154;DHT22;8692;52.164;7.558;2023-09-30T10:55:37;18.60;99.90
17154;DHT22;8692;52.164;7.558;2023-09-30T10:58:06;18.60;99.90
17154;DHT22;8692;52.164;7.558;2023-09-30T11:00:34;18.70;99.90
17154;DHT22;8692;52.164;7.558;2023-09-30T11:03:03;18.70;99.90
17154;DHT22;8692;52.164;7.558;2023-09-30T11:05:33;18.70;99.90
17154;DHT22;8692;52.164;7.558;2023-09-30T11:08:22;18.60;99.90
17154;DHT22;8692;52.164;7.558;2023-09-30T11:10:50;18.70;99.90
17154;DHT22;8692;52.164;7.558;2023-09-30T11:13:20;18.70;99.90
17154;DHT22;8692;52.164;7.558;2023-09-30T11:15:59;18.80;99.90
17154;DHT22;8692;52.164;7.558;2023-09-30T11:18:28;18.90;99.90
17154;DHT22;8692;52.164;7.558;2023-09-30T11:21:04;18.90;99.90
17154;DHT22;8692;52.164;7.558;2023-09-30T11:23:33;19.00;99.90
17154;DHT22;8692;52.164;7.558;2023-09-30T11:26:01;19.10;99.90
17154;DHT22;8692;52.164;7.558;2023-09-30T11:28:38;19.10;99.90
17154;DHT22;8692;52.164;7.558;2023-09-30T11:31:08;19.10;99.90
17154;DHT22;8692;52.164;7.558;2023-09-30T11:33:48;19.10;99.90
17154;DHT22;8692;52.164;7.558;2023-09-30T11:36:19;19.00;99.90
17154;DHT22;8692;52.164;7.558;2023-09-30T11:38:49;19.00;99.90
17154;DHT22;8692;52.164;7.558;2023-09-30T11:41:20;19.00;99.90
17154;DHT22;8692;52.164;7.558;2023-09-30T11:44:00;19.00;99.90
17154;DHT22;8692;52.164;7.558;2023-09-30T11:46:31;19.00;99.90
17154;DHT22;8692;52.164;7.558;2023-09-30T11:49:02;19.00;99.90
17154;DHT22;8692;52.164;7.558;2023-09-30T11:51:42;19.00;99.90
17154;DHT22;8692;52.164;7.558;2023-09-30T11:54:14;19.10;99.90
17154;DHT22;8692;52.164;7.558;2023-09-30T11:56:43;19.10;99.90
17154;DHT22;8692;52.164;7.558;2023-09-30T11:59:13;19.10;99.90
17154;DHT22;8692;52.164;7.558;2023-09-30T12:01:41;19.00;99.90
17154;DHT22;8692;52.164;7.558;2023-09-30T12:04:14;19.00;99.90
17154;DHT22;8692;52.164;7.558;2023-09-30T12:06:44;19.00;99.90
17154;DHT22;8692;52.164;7.558;2023-09-30T12:09:12;19.00;99.90
17154;DHT22;8692;52.164;7.558;2023-09-30T12:11:41;19.00;99.90
17154;DHT22;8692;52.164;7.558;2023-09-30T12:14:12;18.90;99.90
17154;DHT22;8692;52.164;7.558;2023-09-30T12:16:40;18.90;99.90
17154;DHT22;8692;52.164;7.558;2023-09-30T12:19:11;18.80;99.90
17154;DHT22;8692;52.164;7.558;2023-09-30T12:21:40;18.80;99.90
17154;DHT22;8692;52.164;7.558;2023-09-30T12:24:08;18.90;99.90
17154;DHT22;8692;52.164;7.558;2023-09-30T12:26:37;18.90;99.90
17154;DHT22;8692;52.164;7.558;2023-09-30T12:29:08;19.00;99.90
17154;DHT22;8692;52.164;7.558;2023-09-30T12:31:37;19.00;99.90
17154;DHT22;8692;52.164;7.558;2023-09-30T12:34:18;19.10;99.90
17154;DHT22;8692;52.164;7.558;2023-09-30T12:36:46;19.20;99.90
17154;DHT22;8692;52.164;7.558;2023-09-30T12:39:14;19.20;99.90
17154;DHT22;8692;52.164;7.558;2023-09-30T12:41:44;19.20;99.90
17154;DHT22;8692;52.164;7.558;2023-09-30T12:44:13;19.20;99.90
17154;DHT22;8692;52.164;7.558;2023-09-30T12:46:43;19.20;99.90
17154;DHT22;8692;52.164;7.558;2023-09-30T12:49:11;19.20;99.90
17154;DHT22;8692;52.164;7.558;2023-09-30T12:51:39;19.20;99.90
17154;DHT22;8692;52.164;7.558;2023-09-30T12:54:07;19.20;99.90
17154;DHT22;8692;52.164;7.558;2023-09-30T12:56:36;19.20;99.90
17154;DHT22;8692;52.164;7.558;2023-09-30T12:59:04;19.20;99.90
17154;DHT22;8692;52.164;7.558;2023-09-30T13:01:32;19.20;99.90
17154;DHT22;8692;52.164;7.558;2023-09-30T13:04:03;19.20;99.90
17154;DHT22;8692;52.164;7.558;2023-09-30T13:06:35;19.30;99.90
17154;DHT22;8692;52.164;7.558;2023-09-30T13:09:03;19.30;99.90
17154;DHT22;8692;52.164;7.558;2023-09-30T13:11:32;19.40;99.90
17154;DHT22;8692;52.164;7.558;2023-09-30T13:14:03;19.50;99.90
17154;DHT22;8692;52.164;7.558;2023-09-30T13:16:31;19.60;99.90
17154;DHT22;8692;52.164;7.558;2023-09-30T13:19:01;19.60;99.90
17154;DHT22;8692;52.164;7.558;2023-09-30T13:21:31;19.70;99.90
17154;DHT22;8692;52.164;7.558;2023-09-30T13:23:59;19.70;99.90
17154;DHT22;8692;52.164;7.558;2023-09-30T13:26:27;19.80;99.90
17154;DHT22;8692;52.164;7.558;2023-09-30T13:28:57;19.80;99.90
17154;DHT22;8692;52.164;7.558;2023-09-30T13:31:25;19.80;99.90
17154;DHT22;8692;52.164;7.558;2023-09-30T13:33:53;19.80;99.90
17154;DHT22;8692;52.164;7.558;2023-09-30T13:36:21;19.80;99.90
17154;DHT22;8692;52.164;7.558;2023-09-30T13:38:51;19.80;99.90
17154;DHT22;8692;52.164;7.558;2023-09-30T13:41:19;19.80;99.90
17154;DHT22;8692;52.164;7.558;2023-09-30T13:43:47;19.80;99.90
17154;DHT22;8692;52.164;7.558;2023-09-30T13:46:15;19.80;99.90
17154;DHT22;8692;52.164;7.558;2023-09-30T13:48:43;19.80;99.90
17154;DHT22;8692;52.164;7.558;2023-09-30T13:51:12;19.80;99.90
17154;DHT22;8692;52.164;7.558;2023-09-30T13:53:40;19.90;99.90
17154;DHT22;8692;52.164;7.558;2023-09-30T13:56:11;20.00;99.90
17154;DHT22;8692;52.164;7.558;2023-09-30T13:58:39;20.20;99.90
17154;DHT22;8692;52.164;7.558;2023-09-30T14:01:08;20.20;99.90
17154;DHT22;8692;52.164;7.558;2023-09-30T14:03:37;20.30;99.90
17154;DHT22;8692;52.164;7.558;2023-09-30T14:06:09;20.40;99.90
17154;DHT22;8692;52.164;7.558;2023-09-30T14:08:38;20.40;99.90
17154;DHT22;8692;52.164;7.558;2023-09-30T14:11:10;20.50;99.90
17154;DHT22;8692;52.164;7.558;2023-09-30T14:13:39;20.60;99.90
17154;DHT22;8692;52.164;7.558;2023-09-30T14:16:07;20.60;99.90
17154;DHT22;8692;52.164;7.558;2023-09-30T14:18:35;20.60;99.90
17154;DHT22;8692;52.164;7.558;2023-09-30T14:21:05;20.50;99.90
17154;DHT22;8692;52.164;7.558;2023-09-30T14:23:34;20.30;99.90
17154;DHT22;8692;52.164;7.558;2023-09-30T14:26:06;20.30;99.90
17154;DHT22;8692;52.164;7.558;2023-09-30T14:28:39;20.30;99.90
17154;DHT22;8692;52.164;7.558;2023-09-30T14:31:07;20.40;99.90
17154;DHT22;8692;52.164;7.558;2023-09-30T14:33:35;20.40;99.90
17154;DHT22;8692;52.164;7.558;2023-09-30T14:36:04;20.40;99.90
17154;DHT22;8692;52.164;7.558;2023-09-30T14:38:33;20.50;99.90
17154;DHT22;8692;52.164;7.558;2023-09-30T14:41:01;20.50;99.90
17154;DHT22;8692;52.164;7.558;2023-09-30T14:43:33;20.50;99.90
17154;DHT22;8692;52.164;7.558;2023-09-30T14:46:03;20.60;99.90
17154;DHT22;8692;52.164;7.558;2023-09-30T14:48:31;20.60;99.90
17154;DHT22;8692;52.164;7.558;2023-09-30T14:51:00;20.60;99.90
17154;DHT22;8692;52.164;7.558;2023-09-30T14:53:29;20.50;99.90
17154;DHT22;8692;52.164;7.558;2023-09-30T14:55:57;20.40;99.90
17154;DHT22;8692;52.164;7.558;2023-09-30T14:58:26;20.30;99.90
17154;DHT22;8692;52.164;7.558;2023-09-30T15:00:54;20.20;99.90
17154;DHT22;8692;52.164;7.558;2023-09-30T15:03:23;20.10;99.90
17154;DHT22;8692;52.164;7.558;2023-09-30T15:05:57;20.10;99.90
17154;DHT22;8692;52.164;7.558;2023-09-30T15:08:26;20.10;99.90
17154;DHT22;8692;52.164;7.558;2023-09-30T15:10:54;20.00;99.90
17154;DHT22;8692;52.164;7.558;2023-09-30T15:13:22;20.00;99.90
17154;DHT22;8692;52.164;7.558;2023-09-30T15:15:50;20.00;99.90
17154;DHT22;8692;52.164;7.558;2023-09-30T15:18:19;19.90;99.90
17154;DHT22;8692;52.164;7.558;2023-09-30T15:20:50;19.90;99.90
17154;DHT22;8692;52.164;7.558;2023-09-30T15:23:18;19.80;99.90
17154;DHT22;8692;52.164;7.558;2023-09-30T15:25:46;19.80;99.90
17154;DHT22;8692;52.164;7.558;2023-09-30T15:28:14;19.80;99.90
17154;DHT22;8692;52.164;7.558;2023-09-30T15:30:42;19.70;99.90
17154;DHT22;8692;52.164;7.558;2023-09-30T15:33:10;19.70;99.90
17154;DHT22;8692;52.164;7.558;2023-09-30T15:35:38;19.60;99.90
17154;DHT22;8692;52.164;7.558;2023-09-30T15:38:08;19.50;99.90
17154;DHT22;8692;52.164;7.558;2023-09-30T15:40:50;19.50;99.90
17154;DHT22;8692;52.164;7.558;2023-09-30T15:43:19;19.40;99.90
17154;DHT22;8692;52.164;7.558;2023-09-30T15:45:48;19.30;99.90
17154;DHT22;8692;52.164;7.558;2023-09-30T15:48:16;19.30;99.90
17154;DHT22;8692;52.164;7.558;2023-09-30T15:50:44;19.20;99.90
17154;DHT22;8692;52.164;7.558;2023-09-30T15:53:13;19.20;99.90
17154;DHT22;8692;52.164;7.558;2023-09-30T15:55:41;19.20;99.90
17154;DHT22;8692;52.164;7.558;2023-09-30T15:58:09;19.10;99.90
17154;DHT22;8692;52.164;7.558;2023-09-30T16:00:38;19.10;99.90
17154;DHT22;8692;52.164;7.558;2023-09-30T16:03:07;19.10;99.90
17154;DHT22;8692;52.164;7.558;2023-09-30T16:05:37;19.10;99.90
17154;DHT22;8692;52.164;7.558;2023-09-30T16:08:07;19.00;99.90